createdAt,value
2022-09-01T00:01:54.016Z,88.90
2022-09-01T00:04:47.287Z,89.60
2022-09-01T00:07:37.021Z,89.50
2022-09-01T00:10:27.926Z,89.30
2022-09-01T00:13:17.812Z,90.00
2022-09-01T00:16:07.888Z,89.40
2022-09-01T00:18:57.449Z,89.80
2022-09-01T00:21:47.827Z,90.10
2022-09-01T00:24:37.631Z,90.40
2022-09-01T00:27:30.866Z,90.40
2022-09-01T00:30:22.171Z,90.70
2022-09-01T00:33:11.681Z,90.60
2022-09-01T00:36:01.625Z,90.60
2022-09-01T00:38:52.608Z,90.70
2022-09-01T00:41:44.880Z,91.00
2022-09-01T00:44:36.509Z,91.10
2022-09-01T00:47:28.754Z,91.20
2022-09-01T00:50:20.916Z,90.90
2022-09-01T00:53:11.785Z,91.30
2022-09-01T00:56:01.390Z,91.30
2022-09-01T00:58:52.001Z,90.90
2022-09-01T01:01:42.810Z,90.90
2022-09-01T01:04:32.281Z,91.30
2022-09-01T01:07:23.697Z,91.00
2022-09-01T01:10:15.882Z,91.10
2022-09-01T01:13:11.229Z,91.10
2022-09-01T01:16:00.845Z,91.80
2022-09-01T01:18:51.896Z,91.10
2022-09-01T01:21:59.661Z,91.60
2022-09-01T01:24:50.422Z,92.30
2022-09-01T01:27:43.194Z,91.70
2022-09-01T01:30:37.076Z,91.60
2022-09-01T01:33:32.881Z,91.60
2022-09-01T01:36:32.119Z,91.90
2022-09-01T01:39:26.920Z,92.10
2022-09-01T01:42:18.062Z,92.10
2022-09-01T01:45:12.688Z,92.20
2022-09-01T01:48:06.080Z,92.00
2022-09-01T01:50:59.657Z,92.00
2022-09-01T01:53:52.797Z,92.30
2022-09-01T01:56:42.533Z,92.10
2022-09-01T01:59:33.929Z,92.20
2022-09-01T02:02:23.387Z,92.70
2022-09-01T02:05:13.003Z,92.30
2022-09-01T02:08:07.470Z,92.40
2022-09-01T02:11:00.226Z,93.10
2022-09-01T02:13:49.809Z,92.40
2022-09-01T02:16:41.863Z,92.40
2022-09-01T02:19:31.401Z,93.00
2022-09-01T02:22:21.772Z,92.50
2022-09-01T02:25:12.096Z,92.70
2022-09-01T02:28:03.782Z,92.90
2022-09-01T02:30:55.530Z,93.00
2022-09-01T02:33:47.135Z,93.40
2022-09-01T02:36:41.083Z,93.70
2022-09-01T02:39:33.797Z,93.40
2022-09-01T02:42:27.585Z,93.90
2022-09-01T02:45:17.957Z,93.50
2022-09-01T02:48:10.483Z,93.50
2022-09-01T02:51:03.072Z,93.60
2022-09-01T02:53:53.383Z,93.80
2022-09-01T02:56:42.771Z,93.50
2022-09-01T02:59:34.726Z,93.40
2022-09-01T03:02:28.951Z,93.50
2022-09-01T03:05:25.292Z,93.50
2022-09-01T03:08:17.302Z,93.40
2022-09-01T03:11:12.999Z,93.90
2022-09-01T03:14:03.353Z,93.70
2022-09-01T03:16:53.352Z,93.70
2022-09-01T03:19:44.579Z,93.90
2022-09-01T03:22:34.869Z,94.10
2022-09-01T03:25:28.840Z,94.20
2022-09-01T03:28:18.644Z,94.70
2022-09-01T03:31:09.990Z,94.40
2022-09-01T03:34:00.796Z,94.60
2022-09-01T03:36:54.460Z,94.80
2022-09-01T03:39:51.007Z,94.80
2022-09-01T03:42:47.370Z,94.90
2022-09-01T03:45:38.463Z,95.30
2022-09-01T03:48:31.702Z,95.10
2022-09-01T03:51:23.325Z,95.40
2022-09-01T03:54:12.897Z,95.40
2022-09-01T03:57:02.299Z,95.30
2022-09-01T03:59:55.270Z,95.50
2022-09-01T04:02:45.248Z,96.20
2022-09-01T04:05:44.608Z,96.00
2022-09-01T04:08:35.048Z,96.30
2022-09-01T04:11:25.324Z,96.20
2022-09-01T04:14:16.218Z,96.40
2022-09-01T04:17:29.926Z,97.00
2022-09-01T04:20:21.980Z,97.20
2022-09-01T04:23:11.372Z,96.90
2022-09-01T04:26:09.035Z,97.10
2022-09-01T04:28:59.449Z,97.60
2022-09-01T04:31:53.657Z,97.50
2022-09-01T04:34:44.554Z,97.70
2022-09-01T04:37:37.489Z,98.20
2022-09-01T04:40:27.495Z,98.10
2022-09-01T04:43:17.776Z,98.30
2022-09-01T04:46:07.370Z,98.50
2022-09-01T04:48:58.596Z,98.70
2022-09-01T04:51:53.867Z,98.90
2022-09-01T04:54:45.337Z,99.50
2022-09-01T04:57:35.315Z,99.20
2022-09-01T05:00:27.935Z,99.30
2022-09-01T05:03:21.535Z,99.70
2022-09-01T05:06:34.626Z,99.70
2022-09-01T05:09:26.237Z,99.80
2022-09-01T05:12:27.880Z,99.90
2022-09-01T05:15:18.143Z,99.90
2022-09-01T05:18:10.150Z,99.90
2022-09-01T05:20:59.948Z,99.90
2022-09-01T05:23:51.928Z,99.90
2022-09-01T05:26:47.484Z,99.90
2022-09-01T05:29:38.045Z,99.90
2022-09-01T05:32:28.907Z,99.90
2022-09-01T05:35:18.795Z,99.90
2022-09-01T05:38:14.020Z,99.90
2022-09-01T05:41:08.704Z,99.90
2022-09-01T05:44:01.008Z,99.90
2022-09-01T05:46:53.632Z,99.90
2022-09-01T05:49:44.709Z,99.90
2022-09-01T05:52:36.275Z,99.90
2022-09-01T05:55:27.750Z,99.90
2022-09-01T05:58:20.275Z,99.90
2022-09-01T06:01:13.451Z,99.90
2022-09-01T06:04:04.881Z,99.90
2022-09-01T06:07:07.001Z,99.90
2022-09-01T06:09:59.786Z,99.90
2022-09-01T06:12:50.517Z,99.90
2022-09-01T06:15:44.733Z,99.90
2022-09-01T06:18:37.345Z,99.90
2022-09-01T06:21:29.092Z,99.90
2022-09-01T06:24:18.767Z,99.90
2022-09-01T06:27:09.899Z,99.90
2022-09-01T06:29:59.675Z,99.90
2022-09-01T06:32:49.773Z,99.90
2022-09-01T06:35:42.110Z,99.90
2022-09-01T06:38:31.872Z,99.90
2022-09-01T06:41:23.666Z,99.90
2022-09-01T06:44:14.645Z,99.90
2022-09-01T06:47:10.770Z,99.90
2022-09-01T06:50:01.913Z,99.90
2022-09-01T06:56:13.690Z,99.90
2022-09-01T06:59:05.653Z,99.90
2022-09-01T07:02:04.862Z,99.90
2022-09-01T07:08:31.840Z,99.90
2022-09-01T07:17:59.242Z,99.90
2022-09-01T07:21:36.728Z,98.10
2022-09-01T07:27:35.906Z,93.90
2022-09-01T07:30:31.976Z,92.60
2022-09-01T07:39:48.578Z,81.80
2022-09-01T07:42:30.800Z,85.10
2022-09-01T07:42:59.008Z,95.80
2022-09-01T07:49:29.805Z,73.20
2022-09-01T07:52:22.603Z,71.30
2022-09-01T07:55:19.502Z,69.30
2022-09-01T07:58:09.548Z,67.30
2022-09-01T08:01:00.139Z,66.50
2022-09-01T08:03:53.407Z,65.10
2022-09-01T08:06:43.578Z,63.90
2022-09-01T08:09:37.384Z,63.20
2022-09-01T08:12:31.077Z,62.20
2022-09-01T08:18:48.129Z,60.60
2022-09-01T08:21:46.488Z,60.00
2022-09-01T08:24:48.066Z,60.10
2022-09-01T08:27:39.920Z,59.70
2022-09-01T08:30:30.077Z,58.90
2022-09-01T08:33:20.264Z,58.70
2022-09-01T08:36:13.294Z,58.20
2022-09-01T08:39:02.677Z,57.40
2022-09-01T08:42:02.058Z,56.90
2022-09-01T08:45:02.922Z,55.00
2022-09-01T08:48:29.115Z,53.90
2022-09-01T08:51:19.983Z,54.30
2022-09-01T08:54:32.077Z,53.10
2022-09-01T08:57:27.878Z,52.90
2022-09-01T09:00:45.961Z,51.80
2022-09-01T09:03:44.854Z,50.10
2022-09-01T09:06:43.933Z,49.40
2022-09-01T09:09:42.266Z,49.00
2022-09-01T09:12:51.511Z,48.50
2022-09-01T09:16:07.253Z,48.70
2022-09-01T09:19:02.844Z,49.40
2022-09-01T09:21:55.213Z,50.10
2022-09-01T09:24:52.330Z,50.60
2022-09-01T09:27:44.362Z,50.50
2022-09-01T09:30:33.924Z,50.00
2022-09-01T09:33:51.603Z,48.60
2022-09-01T09:36:42.513Z,46.30
2022-09-01T09:39:31.862Z,46.30
2022-09-01T09:42:21.691Z,45.70
2022-09-01T09:45:26.675Z,45.30
2022-09-01T09:48:31.531Z,44.30
2022-09-01T09:51:23.726Z,44.00
2022-09-01T09:54:17.709Z,44.70
2022-09-01T09:57:14.461Z,45.10
2022-09-01T10:00:11.369Z,44.50
2022-09-01T10:03:10.219Z,45.10
2022-09-01T10:06:00.633Z,46.40
2022-09-01T10:08:52.034Z,47.20
2022-09-01T10:11:43.643Z,46.90
2022-09-01T10:14:52.340Z,46.40
2022-09-01T10:17:45.974Z,45.20
2022-09-01T10:20:39.981Z,44.60
2022-09-01T10:23:32.419Z,44.40
2022-09-01T10:26:28.226Z,44.70
2022-09-01T10:29:22.871Z,45.20
2022-09-01T10:32:31.826Z,45.80
2022-09-01T10:35:30.840Z,45.30
2022-09-01T10:38:25.090Z,44.90
2022-09-01T10:42:00.766Z,44.30
2022-09-01T10:44:58.910Z,43.60
2022-09-01T10:47:48.818Z,44.00
2022-09-01T10:50:38.672Z,45.50
2022-09-01T10:53:42.739Z,45.90
2022-09-01T10:56:44.684Z,45.30
2022-09-01T10:59:44.408Z,45.80
2022-09-01T11:03:31.481Z,46.60
2022-09-01T11:07:17.872Z,46.30
2022-09-01T11:10:34.435Z,45.00
2022-09-01T11:13:49.578Z,44.40
2022-09-01T11:16:49.313Z,43.70
2022-09-01T11:19:44.586Z,43.60
2022-09-01T11:22:40.289Z,43.10
2022-09-01T11:25:43.902Z,42.30
2022-09-01T11:28:44.473Z,41.80
2022-09-01T11:31:43.405Z,41.00
2022-09-01T11:34:32.982Z,40.10
2022-09-01T11:37:27.805Z,40.10
2022-09-01T11:40:25.687Z,39.60
2022-09-01T11:43:19.836Z,39.00
2022-09-01T11:46:17.928Z,38.90
2022-09-01T11:49:28.342Z,38.70
2022-09-01T11:52:20.186Z,39.10
2022-09-01T11:55:11.621Z,39.40
2022-09-01T11:58:03.372Z,39.70
2022-09-01T12:00:52.749Z,40.00
2022-09-01T12:03:43.064Z,39.90
2022-09-01T12:06:32.616Z,39.70
2022-09-01T12:09:22.074Z,39.80
2022-09-01T12:12:33.073Z,39.90
2022-09-01T12:15:26.627Z,39.80
2022-09-01T12:18:22.904Z,39.90
2022-09-01T12:21:28.543Z,39.90
2022-09-01T12:24:21.571Z,40.00
2022-09-01T12:27:11.074Z,40.10
2022-09-01T12:30:00.487Z,40.20
2022-09-01T12:32:51.946Z,40.40
2022-09-01T12:35:42.106Z,40.50
2022-09-01T12:38:32.466Z,40.50
2022-09-01T12:41:40.108Z,40.50
2022-09-01T12:44:34.440Z,40.40
2022-09-01T12:47:52.133Z,40.70
2022-09-01T12:50:47.002Z,40.70
2022-09-01T12:53:37.122Z,41.00
2022-09-01T12:56:32.316Z,41.20
2022-09-01T12:59:35.808Z,41.30
2022-09-01T13:02:36.834Z,41.20
2022-09-01T13:05:36.159Z,40.90
2022-09-01T13:08:33.015Z,40.80
2022-09-01T13:11:22.473Z,40.70
2022-09-01T13:14:12.846Z,40.60
2022-09-01T13:17:02.328Z,40.40
2022-09-01T13:19:51.753Z,40.20
2022-09-01T13:22:44.672Z,40.20
2022-09-01T13:25:34.012Z,40.10
2022-09-01T13:31:35.703Z,40.00
2022-09-01T13:34:25.860Z,40.30
2022-09-01T13:37:15.353Z,40.60
2022-09-01T13:40:07.916Z,40.80
2022-09-01T13:42:57.381Z,40.90
2022-09-01T13:45:48.311Z,41.10
2022-09-01T13:51:52.986Z,41.20
2022-09-01T13:54:44.290Z,41.30
2022-09-01T13:57:36.188Z,41.40
2022-09-01T14:00:30.336Z,41.60
2022-09-01T14:03:23.377Z,41.90
2022-09-01T14:06:12.781Z,42.00
2022-09-01T14:09:02.211Z,42.10
2022-09-01T14:11:54.666Z,42.20
2022-09-01T14:17:58.092Z,42.40
2022-09-01T14:20:50.967Z,42.60
2022-09-01T14:23:40.450Z,42.60
2022-09-01T14:26:29.779Z,42.50
2022-09-01T14:29:19.155Z,42.30
2022-09-01T14:32:09.923Z,42.40
2022-09-01T14:34:59.357Z,42.40
2022-09-01T14:37:48.753Z,43.10
2022-09-01T14:40:39.404Z,42.50
2022-09-01T14:43:31.801Z,42.60
2022-09-01T14:46:23.686Z,42.70
2022-09-01T14:49:21.594Z,42.90
2022-09-01T14:52:13.475Z,43.00
2022-09-01T14:55:02.885Z,42.80
2022-09-01T14:57:52.901Z,42.70
2022-09-01T15:00:42.960Z,42.60
2022-09-01T15:03:32.410Z,42.70
2022-09-01T15:06:24.365Z,42.60
2022-09-01T15:09:18.497Z,42.50
2022-09-01T15:12:09.556Z,42.40
2022-09-01T15:14:59.513Z,42.30
2022-09-01T15:17:48.864Z,42.20
2022-09-01T15:20:48.825Z,42.90
2022-09-01T15:23:39.615Z,42.40
2022-09-01T15:26:29.641Z,42.40
2022-09-01T15:29:19.148Z,42.40
2022-09-01T15:32:08.619Z,42.50
2022-09-01T15:35:07.600Z,42.50
2022-09-01T15:37:57.735Z,42.70
2022-09-01T15:40:58.322Z,42.90
2022-09-01T15:43:48.554Z,43.10
2022-09-01T15:46:39.270Z,43.20
2022-09-01T15:49:28.740Z,43.40
2022-09-01T15:52:18.858Z,43.40
2022-09-01T15:55:09.083Z,43.30
2022-09-01T15:58:00.731Z,43.10
2022-09-01T16:00:51.663Z,42.90
2022-09-01T16:03:41.337Z,42.80
2022-09-01T16:06:31.387Z,42.90
2022-09-01T16:09:21.989Z,42.70
2022-09-01T16:12:11.357Z,42.60
2022-09-01T16:15:03.737Z,42.60
2022-09-01T16:18:07.873Z,42.60
2022-09-01T16:21:05.357Z,42.80
2022-09-01T16:23:55.058Z,42.80
2022-09-01T16:26:49.208Z,42.90
2022-09-01T16:29:46.752Z,42.90
2022-09-01T16:32:39.301Z,43.10
2022-09-01T16:35:39.941Z,43.10
2022-09-01T16:38:39.379Z,43.20
2022-09-01T16:41:45.539Z,43.20
2022-09-01T16:44:49.926Z,43.50
2022-09-01T16:47:59.834Z,43.60
2022-09-01T16:50:58.602Z,43.70
2022-09-01T16:54:05.884Z,43.60
2022-09-01T16:57:04.078Z,43.70
2022-09-01T16:59:56.925Z,43.60
2022-09-01T17:03:00.036Z,43.60
2022-09-01T17:05:57.543Z,43.80
2022-09-01T17:08:54.913Z,43.80
2022-09-01T17:11:49.680Z,43.80
2022-09-01T17:14:44.650Z,43.90
2022-09-01T17:17:43.647Z,44.00
2022-09-01T17:20:39.843Z,44.20
2022-09-01T17:23:38.063Z,44.30
2022-09-01T17:26:30.898Z,44.40
2022-09-01T17:29:27.218Z,44.60
2022-09-01T17:32:34.745Z,44.70
2022-09-01T17:35:32.165Z,44.80
2022-09-01T17:38:31.857Z,44.90
2022-09-01T17:41:34.579Z,45.10
2022-09-01T17:44:36.628Z,45.30
2022-09-01T17:47:38.011Z,45.30
2022-09-01T17:50:43.097Z,45.50
2022-09-01T17:53:45.132Z,45.50
2022-09-01T17:56:46.532Z,45.50
2022-09-01T17:59:47.506Z,45.60
2022-09-01T18:03:19.013Z,45.60
2022-09-01T18:06:11.891Z,45.70
2022-09-01T18:09:04.324Z,45.60
2022-09-01T18:12:00.504Z,45.70
2022-09-01T18:15:00.960Z,45.70
2022-09-01T18:17:55.940Z,46.00
2022-09-01T18:20:48.170Z,45.80
2022-09-01T18:23:40.901Z,45.80
2022-09-01T18:26:36.284Z,46.00
2022-09-01T18:29:29.676Z,46.20
2022-09-01T18:32:36.332Z,46.10
2022-09-01T18:35:40.626Z,46.20
2022-09-01T18:38:46.034Z,46.40
2022-09-01T18:41:51.702Z,46.60
2022-09-01T18:44:50.569Z,46.40
2022-09-01T18:47:51.026Z,46.40
2022-09-01T18:50:49.002Z,46.50
2022-09-01T18:53:47.658Z,46.50
2022-09-01T18:56:45.919Z,46.60
2022-09-01T19:00:19.170Z,46.60
2022-09-01T19:03:17.485Z,46.90
2022-09-01T19:06:31.619Z,46.70
2022-09-01T19:09:30.741Z,47.00
2022-09-01T19:12:33.211Z,46.80
2022-09-01T19:15:31.772Z,46.90
2022-09-01T19:18:32.080Z,46.80
2022-09-01T19:21:25.132Z,47.00
2022-09-01T19:24:24.574Z,46.90
2022-09-01T19:27:18.907Z,46.90
2022-09-01T19:30:11.085Z,47.00
2022-09-01T19:33:04.041Z,47.00
2022-09-01T19:36:01.790Z,47.00
2022-09-01T19:38:51.824Z,47.10
2022-09-01T19:41:48.234Z,47.10
2022-09-01T19:44:48.354Z,47.10
2022-09-01T19:47:48.753Z,47.10
2022-09-01T19:50:42.925Z,47.30
2022-09-01T19:53:42.265Z,47.10
2022-09-01T19:56:39.841Z,47.30
2022-09-01T19:59:46.494Z,47.40
2022-09-01T20:02:42.785Z,47.40
2022-09-01T20:05:39.684Z,47.40
2022-09-01T20:08:36.248Z,47.50
2022-09-01T20:11:44.685Z,47.60
2022-09-01T20:15:05.657Z,47.80
2022-09-01T20:18:03.182Z,48.60
2022-09-01T20:20:52.607Z,47.80
2022-09-01T20:23:49.958Z,47.80
2022-09-01T20:26:47.224Z,47.90
2022-09-01T20:29:44.574Z,48.00
2022-09-01T20:32:42.885Z,48.00
2022-09-01T20:35:40.569Z,48.00
2022-09-01T20:38:57.852Z,48.10
2022-09-01T20:41:57.493Z,48.40
2022-09-01T20:44:54.313Z,48.10
2022-09-01T20:47:51.390Z,48.20
2022-09-01T20:50:52.100Z,48.20
2022-09-01T20:54:04.729Z,48.30
2022-09-01T20:57:04.503Z,48.40
2022-09-01T20:59:57.723Z,48.30
2022-09-01T21:02:59.460Z,48.20
2022-09-01T21:05:56.934Z,48.30
2022-09-01T21:08:50.777Z,48.30
2022-09-01T21:11:49.459Z,48.30
2022-09-01T21:14:56.437Z,48.50
2022-09-01T21:18:00.472Z,48.50
2022-09-01T21:21:03.232Z,48.60
2022-09-01T21:23:52.626Z,48.70
2022-09-01T21:26:42.011Z,48.50
2022-09-01T21:29:48.037Z,48.60
2022-09-01T21:32:39.080Z,48.80
2022-09-01T21:35:28.554Z,48.70
2022-09-01T21:38:19.728Z,48.80
2022-09-01T21:41:13.071Z,49.00
2022-09-01T21:44:02.954Z,48.80
2022-09-01T21:46:53.294Z,48.90
2022-09-01T21:49:42.722Z,49.00
2022-09-01T21:52:32.176Z,49.00
2022-09-01T21:55:24.148Z,49.10
2022-09-01T21:58:13.755Z,49.10
2022-09-01T22:01:03.334Z,49.10
2022-09-01T22:03:52.753Z,49.20
2022-09-01T22:06:42.483Z,49.30
2022-09-01T22:09:31.957Z,49.40
2022-09-01T22:12:22.805Z,49.50
2022-09-01T22:15:16.139Z,49.60
2022-09-01T22:18:05.834Z,49.70
2022-09-01T22:21:04.172Z,49.70
2022-09-01T22:23:53.645Z,50.00
2022-09-01T22:26:43.614Z,49.70
2022-09-01T22:29:34.405Z,49.70
2022-09-01T22:32:26.914Z,49.90
2022-09-01T22:35:20.353Z,49.90
2022-09-01T22:38:10.406Z,50.00
2022-09-01T22:41:01.113Z,50.10
2022-09-01T22:43:51.084Z,50.10
2022-09-01T22:46:42.257Z,50.20
2022-09-01T22:49:31.665Z,50.30
2022-09-01T22:52:21.246Z,50.30
2022-09-01T22:55:13.656Z,50.50
2022-09-01T22:58:03.126Z,50.40
2022-09-01T23:00:55.891Z,50.50
2022-09-01T23:03:46.978Z,50.50
2022-09-01T23:06:41.331Z,50.50
2022-09-01T23:09:30.857Z,50.60
2022-09-01T23:12:20.460Z,50.60
2022-09-01T23:15:11.289Z,50.60
2022-09-01T23:18:00.826Z,50.60
2022-09-01T23:20:51.719Z,50.60
2022-09-01T23:23:42.022Z,50.60
2022-09-01T23:26:33.294Z,50.50
2022-09-01T23:29:22.687Z,50.60
2022-09-01T23:32:12.132Z,50.50
2022-09-01T23:35:01.738Z,50.60
2022-09-01T23:37:52.458Z,50.60
2022-09-01T23:40:43.139Z,50.60
2022-09-01T23:43:32.481Z,50.70
2022-09-01T23:46:25.363Z,50.60
2022-09-01T23:49:17.726Z,50.80
2022-09-01T23:52:07.708Z,50.70
2022-09-01T23:54:58.680Z,50.90
2022-09-01T23:57:48.004Z,50.90
